sensor_id;sensor_type;location;lat;lon;timestamp;pressure;altitude;pressure_sealevel;temperature;humidity
43770;BME280;6597;52.218;9.882;2023-04-01T00:01:21;98709.38;;;9.53;100.00
43770;BME280;6597;52.218;9.882;2023-04-01T00:03:48;98701.81;;;9.49;100.00
43770;BME280;6597;52.218;9.882;2023-04-01T00:06:16;98706.56;;;9.42;100.00
43770;BME280;6597;52.218;9.882;2023-04-01T00:08:43;98699.84;;;9.38;100.00
43770;BME280;6597;52.218;9.882;2023-04-01T00:11:10;98706.88;;;9.38;100.00
43770;BME280;6597;52.218;9.882;2023-04-01T00:13:36;98703.41;;;9.37;100.00
43770;BME280;6597;52.218;9.882;2023-04-01T00:16:03;98708.66;;;9.37;100.00
43770;BME280;6597;52.218;9.882;2023-04-01T00:18:32;98702.47;;;9.38;100.00
43770;BME280;6597;52.218;9.882;2023-04-01T00:20:58;98704.25;;;9.38;100.00
43770;BME280;6597;52.218;9.882;2023-04-01T00:23:25;98708.44;;;9.40;100.00
43770;BME280;6597;52.218;9.882;2023-04-01T00:25:52;98706.03;;;9.37;100.00
43770;BME280;6597;52.218;9.882;2023-04-01T00:28:19;98705.94;;;9.39;100.00
43770;BME280;6597;52.218;9.882;2023-04-01T00:30:46;98703.22;;;9.40;100.00
43770;BME280;6597;52.218;9.882;2023-04-01T00:33:13;98703.88;;;9.44;100.00
43770;BME280;6597;52.218;9.882;2023-04-01T00:35:41;98707.50;;;9.41;100.00
43770;BME280;6597;52.218;9.882;2023-04-01T00:38:08;98709.03;;;9.45;100.00
43770;BME280;6597;52.218;9.882;2023-04-01T00:40:38;98698.47;;;9.47;100.00
43770;BME280;6597;52.218;9.882;2023-04-01T00:43:10;98701.81;;;9.49;100.00
43770;BME280;6597;52.218;9.882;2023-04-01T00:45:39;98703.41;;;9.51;100.00
43770;BME280;6597;52.218;9.882;2023-04-01T00:48:10;98706.56;;;9.56;100.00
43770;BME280;6597;52.218;9.882;2023-04-01T00:50:39;98704.69;;;9.58;100.00
43770;BME280;6597;52.218;9.882;2023-04-01T00:53:09;98707.84;;;9.63;100.00
43770;BME280;6597;52.218;9.882;2023-04-01T00:55:39;98710.38;;;9.65;100.00
43770;BME280;6597;52.218;9.882;2023-04-01T00:58:09;98701.88;;;9.61;100.00
43770;BME280;6597;52.218;9.882;2023-04-01T01:00:37;98701.88;;;9.61;100.00
43770;BME280;6597;52.218;9.882;2023-04-01T01:03:04;98709.44;;;9.66;100.00
43770;BME280;6597;52.218;9.882;2023-04-01T01:05:43;98713.00;;;9.65;100.00
43770;BME280;6597;52.218;9.882;2023-04-01T01:08:19;98714.03;;;9.62;100.00
43770;BME280;6597;52.218;9.882;2023-04-01T01:10:49;98713.47;;;9.57;100.00
43770;BME280;6597;52.218;9.882;2023-04-01T01:13:21;98709.69;;;9.49;100.00
43770;BME280;6597;52.218;9.882;2023-04-01T01:15:54;98707.72;;;9.38;100.00
43770;BME280;6597;52.218;9.882;2023-04-01T01:18:28;98707.16;;;9.33;100.00
43770;BME280;6597;52.218;9.882;2023-04-01T01:21:29;98706.59;;;9.28;100.00
43770;BME280;6597;52.218;9.882;2023-04-01T01:26:53;98719.91;;;9.25;100.00
43770;BME280;6597;52.218;9.882;2023-04-01T01:29:55;98700.81;;;9.23;100.00
43770;BME280;6597;52.218;9.882;2023-04-01T01:35:20;98707.94;;;9.07;100.00
43770;BME280;6597;52.218;9.882;2023-04-01T01:37:51;98701.50;;;8.98;100.00
43770;BME280;6597;52.218;9.882;2023-04-01T01:40:20;98699.72;;;8.84;100.00
43770;BME280;6597;52.218;9.882;2023-04-01T01:42:51;98692.31;;;8.77;100.00
43770;BME280;6597;52.218;9.882;2023-04-01T01:45:21;98693.34;;;8.74;100.00
43770;BME280;6597;52.218;9.882;2023-04-01T01:47:51;98696.81;;;8.74;100.00
43770;BME280;6597;52.218;9.882;2023-04-01T01:50:21;98702.22;;;8.71;100.00
43770;BME280;6597;52.218;9.882;2023-04-01T01:52:47;98699.13;;;8.65;100.00
43770;BME280;6597;52.218;9.882;2023-04-01T01:55:27;98703.34;;;8.67;100.00
43770;BME280;6597;52.218;9.882;2023-04-01T01:57:55;98700.81;;;8.66;100.00
43770;BME280;6597;52.218;9.882;2023-04-01T02:00:25;98699.31;;;8.62;100.00
43770;BME280;6597;52.218;9.882;2023-04-01T02:02:52;98705.41;;;8.62;100.00
43770;BME280;6597;52.218;9.882;2023-04-01T02:05:23;98698.38;;;8.63;100.00
43770;BME280;6597;52.218;9.882;2023-04-01T02:07:55;98703.25;;;8.69;100.00
43770;BME280;6597;52.218;9.882;2023-04-01T02:10:26;98711.66;;;8.74;100.00
43770;BME280;6597;52.218;9.882;2023-04-01T02:12:59;98708.09;;;8.75;100.00
43770;BME280;6597;52.218;9.882;2023-04-01T02:15:28;98702.72;;;8.78;100.00
43770;BME280;6597;52.218;9.882;2023-04-01T02:17:58;98714.88;;;8.79;100.00
43770;BME280;6597;52.218;9.882;2023-04-01T02:20:28;98706.19;;;8.79;100.00
43770;BME280;6597;52.218;9.882;2023-04-01T02:22:57;98702.63;;;8.80;100.00
43770;BME280;6597;52.218;9.882;2023-04-01T02:25:27;98711.31;;;8.80;100.00
43770;BME280;6597;52.218;9.882;2023-04-01T02:27:56;98704.22;;;8.82;100.00
43770;BME280;6597;52.218;9.882;2023-04-01T02:30:23;98706.72;;;8.84;100.00
43770;BME280;6597;52.218;9.882;2023-04-01T02:32:52;98693.94;;;8.79;100.00
43770;BME280;6597;52.218;9.882;2023-04-01T02:35:19;98706.81;;;8.82;100.00
43770;BME280;6597;52.218;9.882;2023-04-01T02:37:49;98707.06;;;8.78;100.00
43770;BME280;6597;52.218;9.882;2023-04-01T02:40:17;98710.91;;;8.72;100.00
43770;BME280;6597;52.218;9.882;2023-04-01T02:42:43;98709.31;;;8.69;100.00
43770;BME280;6597;52.218;9.882;2023-04-01T02:45:12;98708.66;;;8.66;100.00
43770;BME280;6597;52.218;9.882;2023-04-01T02:47:39;98700.06;;;8.64;100.00
43770;BME280;6597;52.218;9.882;2023-04-01T02:50:07;98707.91;;;8.64;100.00
43770;BME280;6597;52.218;9.882;2023-04-01T02:52:33;98708.84;;;8.63;100.00
43770;BME280;6597;52.218;9.882;2023-04-01T02:55:02;98704.47;;;8.63;100.00
43770;BME280;6597;52.218;9.882;2023-04-01T02:57:30;98717.63;;;8.62;100.00
43770;BME280;6597;52.218;9.882;2023-04-01T02:59:56;98715.75;;;8.64;100.00
43770;BME280;6597;52.218;9.882;2023-04-01T03:02:23;98712.22;;;8.65;100.00
43770;BME280;6597;52.218;9.882;2023-04-01T03:04:49;98719.13;;;8.66;100.00
43770;BME280;6597;52.218;9.882;2023-04-01T03:07:16;98719.97;;;8.66;100.00
43770;BME280;6597;52.218;9.882;2023-04-01T03:09:43;98721.75;;;8.66;100.00
43770;BME280;6597;52.218;9.882;2023-04-01T03:12:11;98713.91;;;8.66;100.00
43770;BME280;6597;52.218;9.882;2023-04-01T03:14:46;98719.78;;;8.69;100.00
43770;BME280;6597;52.218;9.882;2023-04-01T03:17:13;98717.06;;;8.71;100.00
43770;BME280;6597;52.218;9.882;2023-04-01T03:19:39;98713.53;;;8.72;100.00
43770;BME280;6597;52.218;9.882;2023-04-01T03:22:08;98722.13;;;8.74;100.00
43770;BME280;6597;52.218;9.882;2023-04-01T03:24:36;98721.09;;;8.77;100.00
43770;BME280;6597;52.218;9.882;2023-04-01T03:27:03;98714.94;;;8.78;100.00
43770;BME280;6597;52.218;9.882;2023-04-01T03:29:31;98722.63;;;8.81;100.00
43770;BME280;6597;52.218;9.882;2023-04-01T03:31:58;98720.75;;;8.83;100.00
43770;BME280;6597;52.218;9.882;2023-04-01T03:34:25;98717.09;;;8.85;100.00
43770;BME280;6597;52.218;9.882;2023-04-01T03:36:52;98723.84;;;8.89;100.00
43770;BME280;6597;52.218;9.882;2023-04-01T03:39:18;98722.91;;;8.90;100.00
43770;BME280;6597;52.218;9.882;2023-04-01T03:41:45;98725.50;;;8.90;100.00
43770;BME280;6597;52.218;9.882;2023-04-01T03:44:12;98730.47;;;8.95;100.00
43770;BME280;6597;52.218;9.882;2023-04-01T03:46:40;98730.28;;;8.98;100.00
43770;BME280;6597;52.218;9.882;2023-04-01T03:49:07;98732.78;;;8.99;100.00
43770;BME280;6597;52.218;9.882;2023-04-01T03:51:37;98731.56;;;9.05;100.00
43770;BME280;6597;52.218;9.882;2023-04-01T03:54:03;98733.34;;;9.04;100.00
43770;BME280;6597;52.218;9.882;2023-04-01T03:56:30;98736.91;;;9.03;100.00
43770;BME280;6597;52.218;9.882;2023-04-01T03:58:57;98734.28;;;9.03;100.00
43770;BME280;6597;52.218;9.882;2023-04-01T04:01:24;98737.66;;;9.05;100.00
43770;BME280;6597;52.218;9.882;2023-04-01T04:03:55;98733.25;;;9.06;100.00
43770;BME280;6597;52.218;9.882;2023-04-01T04:06:23;98731.47;;;9.07;100.00
43770;BME280;6597;52.218;9.882;2023-04-01T04:08:50;98744.38;;;9.10;100.00
43770;BME280;6597;52.218;9.882;2023-04-01T04:11:18;98743.63;;;9.08;100.00
43770;BME280;6597;52.218;9.882;2023-04-01T04:13:45;98741.84;;;9.08;100.00
43770;BME280;6597;52.218;9.882;2023-04-01T04:16:14;98743.72;;;9.06;100.00
43770;BME280;6597;52.218;9.882;2023-04-01T04:18:45;98742.78;;;9.07;100.00
43770;BME280;6597;52.218;9.882;2023-04-01T04:21:14;98744.56;;;9.07;100.00
43770;BME280;6597;52.218;9.882;2023-04-01T04:23:41;98740.47;;;9.02;100.00
43770;BME280;6597;52.218;9.882;2023-04-01T04:26:10;98742.13;;;9.03;100.00
43770;BME280;6597;52.218;9.882;2023-04-01T04:28:38;98742.13;;;9.03;100.00
43770;BME280;6597;52.218;9.882;2023-04-01T04:31:05;98741.28;;;9.03;100.00
43770;BME280;6597;52.218;9.882;2023-04-01T04:33:34;98744.09;;;9.00;100.00
43770;BME280;6597;52.218;9.882;2023-04-01T04:36:03;98744.94;;;9.00;100.00
43770;BME280;6597;52.218;9.882;2023-04-01T04:38:32;98754.66;;;8.98;100.00
43770;BME280;6597;52.218;9.882;2023-04-01T04:40:58;98753.63;;;9.01;100.00
43770;BME280;6597;52.218;9.882;2023-04-01T04:43:25;98754.56;;;9.00;100.00
43770;BME280;6597;52.218;9.882;2023-04-01T04:45:52;98748.69;;;8.96;100.00
43770;BME280;6597;52.218;9.882;2023-04-01T04:48:18;98760.19;;;8.94;100.00
43770;BME280;6597;52.218;9.882;2023-04-01T04:50:46;98755.03;;;8.92;100.00
43770;BME280;6597;52.218;9.882;2023-04-01T04:53:14;98750.00;;;8.89;100.00
43770;BME280;6597;52.218;9.882;2023-04-01T04:55:44;98752.91;;;8.85;100.00
43770;BME280;6597;52.218;9.882;2023-04-01T04:58:29;98751.97;;;8.86;100.00
43770;BME280;6597;52.218;9.882;2023-04-01T05:00:56;98759.06;;;8.84;100.00
43770;BME280;6597;52.218;9.882;2023-04-01T05:03:27;98759.16;;;8.82;100.00
43770;BME280;6597;52.218;9.882;2023-04-01T05:05:53;98757.66;;;8.78;100.00
43770;BME280;6597;52.218;9.882;2023-04-01T05:08:20;98763.88;;;8.76;100.00
43770;BME280;6597;52.218;9.882;2023-04-01T05:10:48;98758.75;;;8.74;100.00
43770;BME280;6597;52.218;9.882;2023-04-01T05:13:14;98743.13;;;8.58;100.00
43770;BME280;6597;52.218;9.882;2023-04-01T05:15:45;98763.31;;;8.70;100.00
43770;BME280;6597;52.218;9.882;2023-04-01T05:18:11;98765.09;;;8.70;100.00
43770;BME280;6597;52.218;9.882;2023-04-01T05:20:38;98765.19;;;8.68;100.00
43770;BME280;6597;52.218;9.882;2023-04-01T05:23:04;98758.38;;;8.66;100.00
43770;BME280;6597;52.218;9.882;2023-04-01T05:25:31;98769.56;;;8.68;100.00
43770;BME280;6597;52.218;9.882;2023-04-01T05:27:59;98767.78;;;8.68;100.00
43770;BME280;6597;52.218;9.882;2023-04-01T05:30:25;98772.94;;;8.70;100.00
43770;BME280;6597;52.218;9.882;2023-04-01T05:33:01;98771.91;;;8.72;100.00
43770;BME280;6597;52.218;9.882;2023-04-01T05:35:28;98769.19;;;8.74;100.00
43770;BME280;6597;52.218;9.882;2023-04-01T05:37:54;98771.72;;;8.76;100.00
43770;BME280;6597;52.218;9.882;2023-04-01T05:40:21;98772.56;;;8.76;100.00
43770;BME280;6597;52.218;9.882;2023-04-01T05:42:47;98781.34;;;8.75;100.00
43770;BME280;6597;52.218;9.882;2023-04-01T05:45:16;98769.88;;;8.78;100.00
43770;BME280;6597;52.218;9.882;2023-04-01T05:48:06;98778.50;;;8.80;100.00
43770;BME280;6597;52.218;9.882;2023-04-01T05:50:39;98772.13;;;8.84;100.00
43770;BME280;6597;52.218;9.882;2023-04-01T05:53:06;98774.38;;;8.90;100.00
43770;BME280;6597;52.218;9.882;2023-04-01T05:55:34;98780.28;;;8.93;100.00
43770;BME280;6597;52.218;9.882;2023-04-01T05:58:01;98787.00;;;8.97;100.00
43770;BME280;6597;52.218;9.882;2023-04-01T06:00:30;98779.63;;;9.04;100.00
43770;BME280;6597;52.218;9.882;2023-04-01T06:02:58;98783.47;;;9.13;100.00
43770;BME280;6597;52.218;9.882;2023-04-01T06:05:28;98784.78;;;9.20;100.00
43770;BME280;6597;52.218;9.882;2023-04-01T06:07:59;98787.22;;;9.23;100.00
43770;BME280;6597;52.218;9.882;2023-04-01T06:10:42;98786.84;;;9.29;100.00
43770;BME280;6597;52.218;9.882;2023-04-01T06:13:16;98786.47;;;9.35;100.00
43770;BME280;6597;52.218;9.882;2023-04-01T06:15:53;98794.88;;;9.40;100.00
43770;BME280;6597;52.218;9.882;2023-04-01T06:18:48;98793.56;;;9.47;100.00
43770;BME280;6597;52.218;9.882;2023-04-01T06:21:37;98796.84;;;9.51;100.00
43770;BME280;6597;52.218;9.882;2023-04-01T06:24:22;98804.41;;;9.55;100.00
43770;BME280;6597;52.218;9.882;2023-04-01T06:26:55;98810.78;;;9.51;100.00
43770;BME280;6597;52.218;9.882;2023-04-01T06:29:35;98804.59;;;9.52;100.00
43770;BME280;6597;52.218;9.882;2023-04-01T06:32:26;98805.06;;;9.59;100.00
43770;BME280;6597;52.218;9.882;2023-04-01T06:35:11;98804.38;;;9.70;100.00
43770;BME280;6597;52.218;9.882;2023-04-01T06:37:57;98811.13;;;9.74;100.00
43770;BME280;6597;52.218;9.882;2023-04-01T06:40:40;98808.59;;;9.72;100.00
43770;BME280;6597;52.218;9.882;2023-04-01T06:43:16;98811.22;;;9.72;100.00
43770;BME280;6597;52.218;9.882;2023-04-01T06:46:24;98818.22;;;9.72;100.00
43770;BME280;6597;52.218;9.882;2023-04-01T06:49:34;98818.22;;;9.72;100.00
43770;BME280;6597;52.218;9.882;2023-04-01T06:52:26;98814.97;;;9.68;100.00
43770;BME280;6597;52.218;9.882;2023-04-01T06:55:23;98823.09;;;9.63;100.00
43770;BME280;6597;52.218;9.882;2023-04-01T06:58:20;98832.56;;;9.66;100.00
43770;BME280;6597;52.218;9.882;2023-04-01T07:00:49;98823.31;;;9.60;100.00
43770;BME280;6597;52.218;9.882;2023-04-01T07:03:21;98818.06;;;9.60;100.00
43770;BME280;6597;52.218;9.882;2023-04-01T07:05:49;98833.78;;;9.60;100.00
43770;BME280;6597;52.218;9.882;2023-04-01T07:08:20;98828.63;;;9.59;100.00
43770;BME280;6597;52.218;9.882;2023-04-01T07:10:50;98824.97;;;9.61;100.00
43770;BME280;6597;52.218;9.882;2023-04-01T07:13:41;98826.28;;;9.68;100.00
43770;BME280;6597;52.218;9.882;2023-04-01T07:16:18;98837.59;;;9.69;100.00
43770;BME280;6597;52.218;9.882;2023-04-01T07:18:49;98832.84;;;9.76;100.00
43770;BME280;6597;52.218;9.882;2023-04-01T07:21:25;98842.19;;;9.80;100.00
43770;BME280;6597;52.218;9.882;2023-04-01T07:23:59;98841.63;;;9.89;100.00
43770;BME280;6597;52.218;9.882;2023-04-01T07:26:43;98841.69;;;10.02;100.00
43770;BME280;6597;52.218;9.882;2023-04-01T07:29:14;98846.25;;;10.12;100.00
43770;BME280;6597;52.218;9.882;2023-04-01T07:32:15;98847.75;;;10.16;100.00
43770;BME280;6597;52.218;9.882;2023-04-01T07:34:51;98854.00;;;10.28;100.00
43770;BME280;6597;52.218;9.882;2023-04-01T07:37:28;98854.25;;;10.38;100.00
43770;BME280;6597;52.218;9.882;2023-04-01T07:40:05;98857.38;;;10.30;100.00
43770;BME280;6597;52.218;9.882;2023-04-01T07:42:47;98856.53;;;10.29;100.00
43770;BME280;6597;52.218;9.882;2023-04-01T07:45:23;98858.50;;;10.26;100.00
43770;BME280;6597;52.218;9.882;2023-04-01T07:48:06;98869.53;;;10.31;100.00
43770;BME280;6597;52.218;9.882;2023-04-01T07:50:41;98867.97;;;10.28;100.00
43770;BME280;6597;52.218;9.882;2023-04-01T07:53:16;98861.47;;;10.34;100.00
43770;BME280;6597;52.218;9.882;2023-04-01T07:55:55;98866.25;;;10.42;100.00
43770;BME280;6597;52.218;9.882;2023-04-01T07:58:31;98878.78;;;10.37;100.00
43770;BME280;6597;52.218;9.882;2023-04-01T08:01:04;98871.97;;;10.34;100.00
43770;BME280;6597;52.218;9.882;2023-04-01T08:03:54;98875.97;;;10.40;100.00
43770;BME280;6597;52.218;9.882;2023-04-01T08:06:31;98877.94;;;10.50;100.00
43770;BME280;6597;52.218;9.882;2023-04-01T08:09:06;98881.84;;;10.57;100.00
43770;BME280;6597;52.218;9.882;2023-04-01T08:12:04;98880.34;;;10.53;100.00
43770;BME280;6597;52.218;9.882;2023-04-01T08:15:19;98891.28;;;10.60;100.00
43770;BME280;6597;52.218;9.882;2023-04-01T08:18:14;98887.19;;;10.56;100.00
43770;BME280;6597;52.218;9.882;2023-04-01T08:20:46;98883.81;;;10.54;100.00
43770;BME280;6597;52.218;9.882;2023-04-01T08:23:16;98888.75;;;10.58;100.00
43770;BME280;6597;52.218;9.882;2023-04-01T08:25:50;98893.41;;;10.68;100.00
43770;BME280;6597;52.218;9.882;2023-04-01T08:28:24;98896.41;;;10.76;100.00
43770;BME280;6597;52.218;9.882;2023-04-01T08:30:56;98904.81;;;10.81;100.00
43770;BME280;6597;52.218;9.882;2023-04-01T08:33:25;98898.84;;;10.91;100.00
43770;BME280;6597;52.218;9.882;2023-04-01T08:36:03;98903.34;;;10.89;100.00
43770;BME280;6597;52.218;9.882;2023-04-01T08:38:36;98912.16;;;10.88;100.00
43770;BME280;6597;52.218;9.882;2023-04-01T08:41:22;98905.13;;;10.89;100.00
43770;BME280;6597;52.218;9.882;2023-04-01T08:44:45;98910.28;;;10.90;97.96
43770;BME280;6597;52.218;9.882;2023-04-01T08:47:56;98907.78;;;11.02;100.00
43770;BME280;6597;52.218;9.882;2023-04-01T08:53:47;98913.31;;;11.37;100.00
43770;BME280;6597;52.218;9.882;2023-04-01T08:56:21;98908.59;;;11.42;95.23
43770;BME280;6597;52.218;9.882;2023-04-01T08:59:03;98916.69;;;11.51;97.53
43770;BME280;6597;52.218;9.882;2023-04-01T09:01:56;98909.75;;;11.63;95.18
43770;BME280;6597;52.218;9.882;2023-04-01T09:05:18;98914.28;;;11.74;94.33
43770;BME280;6597;52.218;9.882;2023-04-01T09:07:54;98916.19;;;11.84;92.10
43770;BME280;6597;52.218;9.882;2023-04-01T09:10:41;98916.38;;;11.94;92.62
43770;BME280;6597;52.218;9.882;2023-04-01T09:14:02;98913.88;;;12.05;90.86
43770;BME280;6597;52.218;9.882;2023-04-01T09:16:58;98921.09;;;12.14;91.33
43770;BME280;6597;52.218;9.882;2023-04-01T09:19:33;98910.31;;;12.30;91.58
43770;BME280;6597;52.218;9.882;2023-04-01T09:22:22;98924.50;;;12.40;89.54
43770;BME280;6597;52.218;9.882;2023-04-01T09:25:38;98926.41;;;12.38;90.03
43770;BME280;6597;52.218;9.882;2023-04-01T09:28:18;98928.78;;;12.54;90.28
43770;BME280;6597;52.218;9.882;2023-04-01T09:34:38;98937.50;;;12.18;89.39
43770;BME280;6597;52.218;9.882;2023-04-01T09:37:19;98935.19;;;12.13;86.46
43770;BME280;6597;52.218;9.882;2023-04-01T09:40:03;98937.53;;;12.05;88.43
43770;BME280;6597;52.218;9.882;2023-04-01T09:42:53;98947.50;;;12.13;88.87
43770;BME280;6597;52.218;9.882;2023-04-01T09:45:37;98948.34;;;12.01;88.22
43770;BME280;6597;52.218;9.882;2023-04-01T09:48:15;98951.72;;;12.15;89.27
43770;BME280;6597;52.218;9.882;2023-04-01T09:50:52;98948.44;;;12.25;89.88
43770;BME280;6597;52.218;9.882;2023-04-01T09:53:32;98956.19;;;12.39;87.78
43770;BME280;6597;52.218;9.882;2023-04-01T09:56:27;98957.34;;;12.35;87.68
43770;BME280;6597;52.218;9.882;2023-04-01T09:59:37;98962.31;;;12.27;87.75
43770;BME280;6597;52.218;9.882;2023-04-01T10:03:24;98965.50;;;12.19;88.81
43770;BME280;6597;52.218;9.882;2023-04-01T10:06:25;98970.66;;;12.08;90.39
43770;BME280;6597;52.218;9.882;2023-04-01T10:21:29;98977.03;;;12.29;91.89
43770;BME280;6597;52.218;9.882;2023-04-01T10:24:38;98987.44;;;12.43;92.51
43770;BME280;6597;52.218;9.882;2023-04-01T10:33:38;98980.91;;;12.49;90.12
43770;BME280;6597;52.218;9.882;2023-04-01T10:39:32;98982.97;;;12.57;88.65
43770;BME280;6597;52.218;9.882;2023-04-01T10:42:41;98984.94;;;12.42;90.06
43770;BME280;6597;52.218;9.882;2023-04-01T10:49:10;98983.44;;;12.51;93.05
43770;BME280;6597;52.218;9.882;2023-04-01T10:52:23;98986.25;;;12.60;92.79
43770;BME280;6597;52.218;9.882;2023-04-01T10:55:37;98992.00;;;12.65;92.59
43770;BME280;6597;52.218;9.882;2023-04-01T10:58:55;98990.69;;;12.84;93.37
43770;BME280;6597;52.218;9.882;2023-04-01T11:02:12;98998.25;;;12.88;91.83
43770;BME280;6597;52.218;9.882;2023-04-01T11:05:33;98999.22;;;12.87;91.93
43770;BME280;6597;52.218;9.882;2023-04-01T11:08:34;99005.03;;;12.80;92.04
43770;BME280;6597;52.218;9.882;2023-04-01T11:11:48;99001.06;;;12.74;91.88
43770;BME280;6597;52.218;9.882;2023-04-01T11:14:59;98999.56;;;12.83;94.36
43770;BME280;6597;52.218;9.882;2023-04-01T11:18:00;99001.69;;;12.77;91.40
43770;BME280;6597;52.218;9.882;2023-04-01T11:24:26;99010.63;;;12.75;94.26
43770;BME280;6597;52.218;9.882;2023-04-01T11:27:42;99016.06;;;12.85;94.48
43770;BME280;6597;52.218;9.882;2023-04-01T11:30:27;99014.41;;;12.84;93.86
43770;BME280;6597;52.218;9.882;2023-04-01T11:33:00;99020.16;;;13.01;93.18
43770;BME280;6597;52.218;9.882;2023-04-01T11:38:57;99012.72;;;13.19;94.14
43770;BME280;6597;52.218;9.882;2023-04-01T11:41:50;99024.72;;;13.11;90.23
43770;BME280;6597;52.218;9.882;2023-04-01T11:44:39;99013.84;;;12.91;91.08
43770;BME280;6597;52.218;9.882;2023-04-01T11:47:36;99023.50;;;13.03;92.40
43770;BME280;6597;52.218;9.882;2023-04-01T11:50:21;99031.25;;;13.18;94.64
43770;BME280;6597;52.218;9.882;2023-04-01T11:53:18;99027.78;;;13.17;92.43
43770;BME280;6597;52.218;9.882;2023-04-01T11:56:02;99032.94;;;13.19;93.11
43770;BME280;6597;52.218;9.882;2023-04-01T11:58:49;99041.34;;;13.24;92.80
43770;BME280;6597;52.218;9.882;2023-04-01T12:01:37;99041.13;;;13.27;89.97
43770;BME280;6597;52.218;9.882;2023-04-01T12:07:08;99046.00;;;13.20;90.89
43770;BME280;6597;52.218;9.882;2023-04-01T12:09:46;99048.91;;;13.28;90.80
43770;BME280;6597;52.218;9.882;2023-04-01T12:12:26;99046.84;;;13.21;88.98
43770;BME280;6597;52.218;9.882;2023-04-01T12:15:05;99064.97;;;13.13;89.22
43770;BME280;6597;52.218;9.882;2023-04-01T12:17:46;99054.22;;;13.16;88.25
43770;BME280;6597;52.218;9.882;2023-04-01T12:20:28;99054.06;;;13.06;88.57
43770;BME280;6597;52.218;9.882;2023-04-01T12:23:02;99059.09;;;13.09;90.03
43770;BME280;6597;52.218;9.882;2023-04-01T12:26:01;99061.63;;;13.11;91.58
43770;BME280;6597;52.218;9.882;2023-04-01T12:28:41;99058.53;;;13.17;92.18
43770;BME280;6597;52.218;9.882;2023-04-01T12:31:19;99065.91;;;13.24;92.18
43770;BME280;6597;52.218;9.882;2023-04-01T12:34:34;99062.69;;;13.32;91.26
43770;BME280;6597;52.218;9.882;2023-04-01T12:37:11;99064.34;;;13.22;90.67
43770;BME280;6597;52.218;9.882;2023-04-01T12:40:00;99068.75;;;13.21;90.95
43770;BME280;6597;52.218;9.882;2023-04-01T12:42:49;99074.69;;;13.12;89.71
43770;BME280;6597;52.218;9.882;2023-04-01T12:45:31;99076.59;;;13.10;90.25
43770;BME280;6597;52.218;9.882;2023-04-01T12:48:25;99075.94;;;13.19;90.73
43770;BME280;6597;52.218;9.882;2023-04-01T12:51:30;99079.53;;;13.42;92.45
43770;BME280;6597;52.218;9.882;2023-04-01T12:54:24;99082.09;;;13.55;88.35
43770;BME280;6597;52.218;9.882;2023-04-01T12:57:06;99082.72;;;13.58;85.28
43770;BME280;6597;52.218;9.882;2023-04-01T13:00:03;99101.66;;;13.63;88.30
43770;BME280;6597;52.218;9.882;2023-04-01T13:02:45;99098.88;;;13.54;91.60
43770;BME280;6597;52.218;9.882;2023-04-01T13:05:50;99097.81;;;13.56;92.51
43770;BME280;6597;52.218;9.882;2023-04-01T13:08:32;99101.75;;;13.51;92.00
43770;BME280;6597;52.218;9.882;2023-04-01T13:11:09;99096.28;;;13.65;90.57
43770;BME280;6597;52.218;9.882;2023-04-01T13:13:51;99108.56;;;13.77;87.11
43770;BME280;6597;52.218;9.882;2023-04-01T13:16:24;99098.41;;;13.84;87.37
43770;BME280;6597;52.218;9.882;2023-04-01T13:18:59;99100.22;;;13.94;87.76
43770;BME280;6597;52.218;9.882;2023-04-01T13:21:38;99103.47;;;13.98;87.63
43770;BME280;6597;52.218;9.882;2023-04-01T13:24:17;99115.16;;;14.07;87.74
43770;BME280;6597;52.218;9.882;2023-04-01T13:26:56;99114.97;;;13.97;86.07
43770;BME280;6597;52.218;9.882;2023-04-01T13:29:30;99120.84;;;13.89;84.60
43770;BME280;6597;52.218;9.882;2023-04-01T13:32:07;99117.34;;;13.78;85.81
43770;BME280;6597;52.218;9.882;2023-04-01T13:34:51;99124.50;;;13.52;89.79
43770;BME280;6597;52.218;9.882;2023-04-01T13:37:34;99126.59;;;13.59;91.48
43770;BME280;6597;52.218;9.882;2023-04-01T13:40:27;99129.34;;;13.58;89.55
43770;BME280;6597;52.218;9.882;2023-04-01T13:43:02;99133.97;;;13.30;90.45
43770;BME280;6597;52.218;9.882;2023-04-01T13:45:35;99135.72;;;13.06;93.35
43770;BME280;6597;52.218;9.882;2023-04-01T13:48:27;99132.50;;;12.77;95.62
43770;BME280;6597;52.218;9.882;2023-04-01T13:51:13;99138.81;;;12.49;97.87
43770;BME280;6597;52.218;9.882;2023-04-01T13:54:09;99145.22;;;12.32;98.24
43770;BME280;6597;52.218;9.882;2023-04-01T13:56:56;99151.09;;;12.23;98.59
43770;BME280;6597;52.218;9.882;2023-04-01T13:59:43;99155.19;;;12.14;99.54
43770;BME280;6597;52.218;9.882;2023-04-01T14:02:42;99154.31;;;12.01;98.01
43770;BME280;6597;52.218;9.882;2023-04-01T14:05:37;99154.69;;;11.82;100.00
43770;BME280;6597;52.218;9.882;2023-04-01T14:08:23;99163.75;;;11.78;100.00
43770;BME280;6597;52.218;9.882;2023-04-01T14:11:01;99163.34;;;11.70;100.00
43770;BME280;6597;52.218;9.882;2023-04-01T14:13:34;99166.56;;;11.61;100.00
43770;BME280;6597;52.218;9.882;2023-04-01T14:16:21;99170.75;;;11.51;100.00
43770;BME280;6597;52.218;9.882;2023-04-01T14:19:11;99169.69;;;11.53;100.00
43770;BME280;6597;52.218;9.882;2023-04-01T14:21:56;99175.28;;;11.62;100.00
43770;BME280;6597;52.218;9.882;2023-04-01T14:24:42;99181.69;;;11.58;100.00
43770;BME280;6597;52.218;9.882;2023-04-01T14:27:40;99190.31;;;11.60;100.00
43770;BME280;6597;52.218;9.882;2023-04-01T14:30:41;99195.97;;;11.53;100.00
43770;BME280;6597;52.218;9.882;2023-04-01T14:33:28;99196.06;;;11.52;100.00
43770;BME280;6597;52.218;9.882;2023-04-01T14:36:14;99197.50;;;11.43;100.00
43770;BME280;6597;52.218;9.882;2023-04-01T14:38:54;99204.84;;;11.38;100.00
43770;BME280;6597;52.218;9.882;2023-04-01T14:41:38;99204.47;;;11.30;100.00
43770;BME280;6597;52.218;9.882;2023-04-01T14:44:34;99218.34;;;11.04;100.00
43770;BME280;6597;52.218;9.882;2023-04-01T14:47:33;99221.16;;;10.58;100.00
43770;BME280;6597;52.218;9.882;2023-04-01T14:50:11;99223.56;;;10.47;100.00
43770;BME280;6597;52.218;9.882;2023-04-01T14:52:42;99226.50;;;10.26;100.00
43770;BME280;6597;52.218;9.882;2023-04-01T14:55:27;99230.84;;;10.12;100.00
43770;BME280;6597;52.218;9.882;2023-04-01T14:57:59;99236.75;;;9.99;100.00
43770;BME280;6597;52.218;9.882;2023-04-01T15:00:26;99247.00;;;9.88;100.00